createdAt,value
2018-06-23T00:00:26.244Z,54.43
2018-06-23T00:02:55.170Z,55.02
2018-06-23T00:05:24.404Z,54.00
2018-06-23T00:07:53.428Z,53.67
2018-06-23T00:10:22.386Z,53.57
2018-06-23T00:12:51.351Z,53.92
2018-06-23T00:15:20.423Z,53.99
2018-06-23T00:17:49.379Z,53.71
2018-06-23T00:20:18.370Z,54.52
2018-06-23T00:22:47.434Z,54.14
2018-06-23T00:25:21.527Z,53.87
2018-06-23T00:27:50.523Z,54.60
2018-06-23T00:30:19.524Z,54.32
2018-06-23T00:32:48.485Z,54.20
2018-06-23T00:35:17.472Z,54.15
2018-06-23T00:37:46.533Z,53.71
2018-06-23T00:40:15.561Z,55.06
2018-06-23T00:42:44.890Z,54.26
2018-06-23T00:45:13.934Z,54.74
2018-06-23T00:47:42.942Z,54.44
2018-06-23T00:50:11.885Z,54.14
2018-06-23T00:52:40.858Z,53.66
2018-06-23T00:55:09.803Z,54.88
2018-06-23T00:57:38.865Z,55.48
2018-06-23T01:00:07.837Z,55.00
2018-06-23T01:02:36.818Z,55.19
2018-06-23T01:05:05.763Z,55.25
2018-06-23T01:07:34.763Z,54.53
2018-06-23T01:10:03.726Z,54.91
2018-06-23T01:12:32.731Z,54.65
2018-06-23T01:15:01.728Z,53.93
2018-06-23T01:17:30.721Z,54.34
2018-06-23T01:20:00.597Z,54.45
2018-06-23T01:22:29.596Z,56.27
2018-06-23T01:24:58.552Z,55.60
2018-06-23T01:27:27.552Z,55.24
2018-06-23T01:29:56.502Z,55.54
2018-06-23T01:32:25.530Z,55.48
2018-06-23T01:34:54.482Z,57.49
2018-06-23T01:37:23.471Z,56.05
2018-06-23T01:39:52.425Z,56.40
2018-06-23T01:42:21.418Z,55.57
2018-06-23T01:44:50.381Z,56.61
2018-06-23T01:47:19.346Z,55.63
2018-06-23T01:49:48.291Z,55.75
2018-06-23T01:52:17.269Z,55.40
2018-06-23T01:54:46.256Z,55.29
2018-06-23T01:57:15.285Z,56.20
2018-06-23T01:59:44.229Z,55.98
2018-06-23T02:02:13.256Z,56.21
2018-06-23T02:04:42.211Z,56.29
2018-06-23T02:07:11.181Z,56.87
2018-06-23T02:09:40.176Z,56.79
2018-06-23T02:12:09.111Z,56.75
2018-06-23T02:14:43.250Z,56.24
2018-06-23T02:17:17.262Z,55.81
2018-06-23T02:19:51.354Z,55.77
2018-06-23T02:22:25.571Z,56.52
2018-06-23T02:24:59.741Z,57.97
2018-06-23T02:27:33.932Z,57.14
2018-06-23T02:30:07.894Z,56.39
2018-06-23T02:32:41.940Z,56.78
2018-06-23T02:35:10.895Z,56.82
2018-06-23T02:37:40.374Z,57.59
2018-06-23T02:40:09.602Z,58.67
2018-06-23T02:42:38.543Z,57.09
2018-06-23T02:45:07.997Z,56.49
2018-06-23T02:47:37.298Z,55.92
2018-06-23T02:50:06.315Z,55.79
2018-06-23T02:52:35.265Z,57.46
2018-06-23T02:55:04.266Z,58.03
2018-06-23T02:57:33.256Z,57.27
2018-06-23T03:00:02.261Z,57.06
2018-06-23T03:02:31.225Z,57.04
2018-06-23T03:05:00.230Z,57.74
2018-06-23T03:07:29.186Z,58.17
2018-06-23T03:09:58.175Z,58.06
2018-06-23T03:12:27.130Z,57.52
2018-06-23T03:14:56.158Z,57.31
2018-06-23T03:17:25.110Z,57.15
2018-06-23T03:19:54.100Z,57.28
2018-06-23T03:22:23.052Z,56.79
2018-06-23T03:24:52.031Z,56.63
2018-06-23T03:27:21.113Z,56.51
2018-06-23T03:29:50.110Z,56.11
2018-06-23T03:32:19.071Z,56.09
2018-06-23T03:34:48.083Z,56.10
2018-06-23T03:37:17.082Z,56.14
2018-06-23T03:39:46.104Z,56.15
2018-06-23T03:42:15.058Z,56.24
2018-06-23T03:44:44.053Z,55.87
2018-06-23T03:47:13.026Z,56.00
2018-06-23T03:49:42.061Z,55.85
2018-06-23T03:52:11.056Z,55.56
2018-06-23T03:54:40.032Z,56.01
2018-06-23T03:57:08.982Z,55.62
2018-06-23T03:59:37.999Z,56.28
2018-06-23T04:02:06.946Z,56.27
2018-06-23T04:04:35.891Z,55.80
2018-06-23T04:07:04.919Z,55.41
2018-06-23T04:09:33.922Z,55.30
2018-06-23T04:12:02.942Z,55.15
2018-06-23T04:14:32.013Z,55.54
2018-06-23T04:17:01.004Z,54.59
2018-06-23T04:19:29.982Z,54.62
2018-06-23T04:21:58.970Z,54.28
2018-06-23T04:24:27.928Z,54.97
2018-06-23T04:26:56.913Z,54.77
2018-06-23T04:29:25.843Z,54.12
2018-06-23T04:31:54.891Z,53.95
2018-06-23T04:34:23.883Z,54.40
2018-06-23T04:36:52.919Z,54.14
2018-06-23T04:39:21.889Z,53.92
2018-06-23T04:41:50.860Z,54.11
2018-06-23T04:44:19.809Z,53.28
2018-06-23T04:46:48.804Z,53.79
2018-06-23T04:49:17.767Z,53.33
2018-06-23T04:51:46.804Z,53.25
2018-06-23T04:54:15.723Z,53.48
2018-06-23T04:56:44.675Z,53.29
2018-06-23T04:59:13.674Z,53.76
2018-06-23T05:01:42.676Z,54.15
2018-06-23T05:04:11.605Z,54.84
2018-06-23T05:06:40.558Z,54.97
2018-06-23T05:09:09.662Z,54.88
2018-06-23T05:11:38.636Z,53.61
2018-06-23T05:14:07.604Z,53.53
2018-06-23T05:16:36.521Z,54.18
2018-06-23T05:19:05.535Z,52.92
2018-06-23T05:21:34.485Z,52.05
2018-06-23T05:24:03.493Z,51.64
2018-06-23T05:26:32.446Z,51.20
2018-06-23T05:29:01.470Z,52.74
2018-06-23T05:31:30.430Z,51.97
2018-06-23T05:33:59.414Z,51.20
2018-06-23T05:36:28.363Z,51.47
2018-06-23T05:38:57.364Z,50.87
2018-06-23T05:41:26.312Z,50.00
2018-06-23T05:43:55.564Z,49.45
2018-06-23T05:46:24.572Z,48.14
2018-06-23T05:48:53.561Z,47.63
2018-06-23T05:51:22.567Z,47.62
2018-06-23T05:53:51.512Z,47.43
2018-06-23T05:56:20.447Z,47.40
2018-06-23T05:58:49.439Z,48.09
2018-06-23T06:01:18.430Z,47.58
2018-06-23T06:03:47.436Z,47.28
2018-06-23T06:06:16.434Z,46.89
2018-06-23T06:08:45.425Z,45.68
2018-06-23T06:11:14.394Z,44.74
2018-06-23T06:13:43.514Z,43.92
2018-06-23T06:16:12.486Z,44.31
2018-06-23T06:18:41.442Z,43.88
2018-06-23T06:21:10.442Z,44.01
2018-06-23T06:23:39.395Z,43.72
2018-06-23T06:26:08.430Z,39.06
2018-06-23T06:28:37.375Z,36.62
2018-06-23T06:31:06.415Z,32.62
2018-06-23T06:33:35.371Z,35.59
2018-06-23T06:36:04.355Z,37.39
2018-06-23T06:38:33.331Z,39.42
2018-06-23T06:41:02.330Z,39.89
2018-06-23T06:43:31.282Z,40.76
2018-06-23T06:46:00.263Z,40.65
2018-06-23T06:48:29.223Z,40.25
2018-06-23T06:50:58.205Z,40.62
2018-06-23T06:53:27.193Z,36.71
2018-06-23T06:55:56.176Z,31.69
2018-06-23T06:58:25.144Z,31.67
2018-06-23T07:00:54.131Z,35.78
2018-06-23T07:03:23.095Z,35.10
2018-06-23T07:05:52.071Z,35.07
2018-06-23T07:08:21.030Z,35.51
2018-06-23T07:10:49.995Z,36.19
2018-06-23T07:13:18.954Z,36.47
2018-06-23T07:15:47.903Z,37.47
2018-06-23T07:18:16.942Z,37.68
2018-06-23T07:20:45.922Z,37.45
2018-06-23T07:23:14.895Z,37.07
2018-06-23T07:25:43.854Z,37.88
2018-06-23T07:28:12.852Z,36.87
2018-06-23T07:30:41.819Z,39.64
2018-06-23T07:33:10.821Z,38.95
2018-06-23T07:35:39.752Z,37.39
2018-06-23T07:38:08.738Z,36.40
2018-06-23T07:40:37.727Z,36.32
2018-06-23T07:43:06.995Z,37.93
2018-06-23T07:45:35.945Z,37.75
2018-06-23T07:48:04.987Z,36.05
2018-06-23T07:50:33.947Z,34.05
2018-06-23T07:53:02.923Z,35.56
2018-06-23T07:55:31.900Z,33.46
2018-06-23T07:58:00.918Z,32.52
2018-06-23T08:00:29.867Z,31.58
2018-06-23T08:02:58.876Z,31.80
2018-06-23T08:05:27.819Z,31.24
2018-06-23T08:07:56.823Z,29.20
2018-06-23T08:10:25.793Z,27.50
2018-06-23T08:12:54.824Z,27.29
2018-06-23T08:15:23.774Z,26.17
2018-06-23T08:17:52.701Z,25.77
2018-06-23T08:20:21.702Z,26.21
2018-06-23T08:22:51.186Z,25.52
2018-06-23T08:25:20.187Z,23.62
2018-06-23T08:27:49.158Z,25.87
2018-06-23T08:30:18.155Z,23.28
2018-06-23T08:32:47.115Z,23.75
2018-06-23T08:35:16.130Z,24.76
2018-06-23T08:37:45.125Z,19.33
2018-06-23T08:40:14.186Z,19.55
2018-06-23T08:42:43.213Z,18.60
2018-06-23T08:45:12.263Z,18.82
2018-06-23T08:47:41.434Z,22.99
2018-06-23T08:50:10.443Z,21.47
2018-06-23T08:52:39.393Z,20.67
2018-06-23T08:55:08.398Z,19.60
2018-06-23T08:57:37.377Z,19.52
2018-06-23T09:00:06.799Z,20.07
2018-06-23T09:02:35.779Z,18.65
2018-06-23T09:05:04.808Z,18.08
2018-06-23T09:07:33.774Z,17.49
2018-06-23T09:10:02.804Z,21.07
2018-06-23T09:12:31.762Z,24.62
2018-06-23T09:15:00.750Z,21.43
2018-06-23T09:17:29.714Z,21.11
2018-06-23T09:19:58.697Z,19.58
2018-06-23T09:22:27.730Z,23.07
2018-06-23T09:24:56.775Z,24.82
2018-06-23T09:27:25.705Z,21.68
2018-06-23T09:29:54.722Z,19.19
2018-06-23T09:32:23.713Z,19.67
2018-06-23T09:34:52.803Z,22.41
2018-06-23T09:37:23.566Z,21.17
2018-06-23T09:39:54.099Z,23.03
2018-06-23T09:42:23.102Z,23.01
2018-06-23T09:44:52.115Z,24.37
2018-06-23T09:47:21.385Z,26.88
2018-06-23T09:49:50.341Z,24.81
2018-06-23T09:52:19.323Z,23.21
2018-06-23T09:54:48.385Z,23.02
2018-06-23T09:57:17.391Z,25.24
2018-06-23T09:59:46.369Z,25.56
2018-06-23T10:02:15.353Z,25.75
2018-06-23T10:04:44.318Z,26.61
2018-06-23T10:07:13.302Z,25.23
2018-06-23T10:09:42.275Z,24.56
2018-06-23T10:12:11.269Z,24.41
2018-06-23T10:14:40.254Z,26.86
2018-06-23T10:17:09.243Z,27.62
2018-06-23T10:19:38.274Z,27.69
2018-06-23T10:22:07.254Z,26.89
2018-06-23T10:24:36.234Z,26.34
2018-06-23T10:27:05.250Z,26.43
2018-06-23T10:29:34.225Z,27.12
2018-06-23T10:32:03.217Z,27.67
2018-06-23T10:34:32.161Z,24.92
2018-06-23T10:37:01.206Z,23.64
2018-06-23T10:39:30.145Z,22.72
2018-06-23T10:42:00.589Z,23.84
2018-06-23T10:44:29.594Z,22.81
2018-06-23T10:46:58.637Z,22.74
2018-06-23T10:49:27.592Z,22.91
2018-06-23T10:51:56.605Z,22.26
2018-06-23T10:54:25.647Z,23.78
2018-06-23T10:56:54.627Z,23.38
2018-06-23T10:59:23.605Z,22.22
2018-06-23T11:01:52.600Z,22.64
2018-06-23T11:04:21.544Z,21.70
2018-06-23T11:06:50.475Z,22.58
2018-06-23T11:09:19.495Z,23.83
2018-06-23T11:11:48.435Z,24.06
2018-06-23T11:14:17.406Z,26.75
2018-06-23T11:16:46.371Z,31.37
2018-06-23T11:19:15.375Z,29.53
2018-06-23T11:21:44.313Z,26.73
2018-06-23T11:24:13.323Z,27.08
2018-06-23T11:26:42.297Z,26.55
2018-06-23T11:29:11.346Z,27.69
2018-06-23T11:31:40.280Z,27.04
2018-06-23T11:34:09.254Z,25.52
2018-06-23T11:36:38.215Z,25.30
2018-06-23T11:39:09.574Z,25.25
2018-06-23T11:41:38.557Z,24.58
2018-06-23T11:44:07.586Z,25.12
2018-06-23T11:46:36.599Z,24.59
2018-06-23T11:49:05.624Z,26.94
2018-06-23T11:51:34.582Z,27.57
2018-06-23T11:54:03.664Z,25.04
2018-06-23T11:56:32.665Z,25.60
2018-06-23T11:59:01.680Z,25.60
2018-06-23T12:01:30.768Z,27.03
2018-06-23T12:03:59.787Z,29.38
2018-06-23T12:06:28.814Z,28.94
2018-06-23T12:08:57.872Z,27.10
2018-06-23T12:11:26.885Z,25.90
2018-06-23T12:13:55.889Z,27.93
2018-06-23T12:16:24.895Z,27.93
2018-06-23T12:18:53.853Z,29.19
2018-06-23T12:21:22.865Z,28.30
2018-06-23T12:23:51.838Z,27.69
2018-06-23T12:26:20.843Z,27.21
2018-06-23T12:28:49.795Z,27.31
2018-06-23T12:31:18.797Z,27.28
2018-06-23T12:33:47.759Z,27.18
2018-06-23T12:36:16.766Z,27.02
2018-06-23T12:38:45.735Z,26.20
2018-06-23T12:41:14.761Z,27.28
2018-06-23T12:43:43.690Z,27.42
2018-06-23T12:46:12.696Z,28.14
2018-06-23T12:48:41.996Z,30.59
2018-06-23T12:51:10.994Z,31.35
2018-06-23T12:53:39.934Z,31.18
2018-06-23T12:56:08.922Z,29.25
2018-06-23T12:58:37.882Z,31.37
2018-06-23T13:01:06.910Z,30.78
2018-06-23T13:03:35.845Z,30.16
2018-06-23T13:06:04.885Z,30.37
2018-06-23T13:08:33.835Z,30.41
2018-06-23T13:11:02.776Z,30.15
2018-06-23T13:13:31.788Z,32.20
2018-06-23T13:16:00.753Z,31.88
2018-06-23T13:18:29.753Z,30.74
2018-06-23T13:20:58.703Z,30.54
2018-06-23T13:23:27.693Z,29.47
2018-06-23T13:25:56.669Z,29.66
2018-06-23T13:28:25.720Z,30.33
2018-06-23T13:30:54.747Z,31.42
2018-06-23T13:33:23.755Z,31.35
2018-06-23T13:35:52.693Z,28.79
2018-06-23T13:38:21.770Z,29.84
2018-06-23T13:40:50.698Z,29.76
2018-06-23T13:43:19.654Z,29.55
2018-06-23T13:45:48.798Z,29.60
2018-06-23T13:48:17.769Z,29.42
2018-06-23T13:50:46.974Z,30.43
2018-06-23T13:53:15.994Z,30.67
2018-06-23T13:55:44.931Z,30.63
2018-06-23T13:58:13.922Z,30.10
2018-06-23T14:00:42.861Z,29.83
2018-06-23T14:03:11.897Z,29.00
2018-06-23T14:05:40.903Z,29.16
2018-06-23T14:08:09.898Z,31.18
2018-06-23T14:10:38.896Z,29.79
2018-06-23T14:13:07.900Z,29.88
2018-06-23T14:15:36.836Z,30.28
2018-06-23T14:18:05.788Z,29.69
2018-06-23T14:20:34.755Z,31.29
2018-06-23T14:23:03.776Z,30.45
2018-06-23T14:25:32.741Z,30.22
2018-06-23T14:28:01.693Z,32.08
2018-06-23T14:30:30.673Z,32.33
2018-06-23T14:32:59.608Z,31.15
2018-06-23T14:35:28.602Z,31.41
2018-06-23T14:37:57.567Z,31.24
2018-06-23T14:40:26.566Z,30.77
2018-06-23T14:42:55.547Z,30.42
2018-06-23T14:45:24.669Z,30.90
2018-06-23T14:47:53.680Z,31.97
2018-06-23T14:50:22.670Z,32.65
2018-06-23T14:52:51.606Z,33.08
2018-06-23T14:55:20.604Z,33.45
2018-06-23T14:57:49.618Z,32.36
2018-06-23T15:00:18.606Z,33.27
2018-06-23T15:02:47.579Z,33.23
2018-06-23T15:05:16.577Z,32.57
2018-06-23T15:07:45.557Z,31.62
2018-06-23T15:10:25.544Z,31.65
2018-06-23T15:13:05.523Z,30.83
2018-06-23T15:15:34.493Z,30.01
2018-06-23T15:18:03.475Z,30.09
2018-06-23T15:20:32.495Z,30.05
2018-06-23T15:23:01.471Z,31.42
2018-06-23T15:25:30.461Z,33.15
2018-06-23T15:27:59.474Z,32.08
2018-06-23T15:30:28.493Z,33.02
2018-06-23T15:32:57.439Z,32.74
2018-06-23T15:35:26.447Z,32.42
2018-06-23T15:37:55.406Z,32.68
2018-06-23T15:40:24.408Z,32.43
2018-06-23T15:42:53.341Z,32.45
2018-06-23T15:45:22.375Z,32.83
2018-06-23T15:47:51.418Z,32.27
2018-06-23T15:50:20.405Z,32.22
2018-06-23T15:52:49.415Z,32.91
2018-06-23T15:55:18.441Z,33.28
2018-06-23T15:57:47.425Z,33.71
2018-06-23T16:00:16.382Z,32.94
2018-06-23T16:02:45.383Z,34.04
2018-06-23T16:05:14.339Z,34.15
2018-06-23T16:07:43.330Z,33.51
2018-06-23T16:10:23.410Z,33.25
2018-06-23T16:12:52.827Z,33.26
2018-06-23T16:15:21.777Z,35.39
2018-06-23T16:17:50.806Z,34.85
2018-06-23T16:20:19.797Z,34.90
2018-06-23T16:22:49.027Z,36.18
2018-06-23T16:25:17.975Z,35.50
2018-06-23T16:27:46.985Z,35.48
2018-06-23T16:30:15.983Z,35.54
2018-06-23T16:32:45.003Z,35.07
2018-06-23T16:35:14.143Z,34.57
2018-06-23T16:37:43.065Z,34.37
2018-06-23T16:40:11.994Z,34.74
2018-06-23T16:42:40.974Z,34.11
2018-06-23T16:45:09.903Z,33.23
2018-06-23T16:47:38.874Z,34.39
2018-06-23T16:50:07.834Z,34.58
2018-06-23T16:52:36.876Z,35.71
2018-06-23T16:55:05.827Z,35.63
2018-06-23T16:57:34.805Z,35.00
2018-06-23T17:00:03.772Z,34.94
2018-06-23T17:02:32.753Z,34.27
2018-06-23T17:05:01.952Z,35.08
2018-06-23T17:07:30.984Z,34.94
2018-06-23T17:09:59.915Z,34.80
2018-06-23T17:12:28.900Z,34.94
2018-06-23T17:14:57.923Z,34.17
2018-06-23T17:17:26.904Z,34.39
2018-06-23T17:19:55.894Z,35.39
2018-06-23T17:22:24.844Z,34.63
2018-06-23T17:24:53.873Z,33.86
2018-06-23T17:27:22.793Z,34.20
2018-06-23T17:29:51.926Z,34.23
2018-06-23T17:32:22.001Z,35.54
2018-06-23T17:34:52.455Z,35.64
2018-06-23T17:37:21.653Z,35.21
2018-06-23T17:39:50.773Z,36.07
2018-06-23T17:42:19.744Z,35.80
2018-06-23T17:44:48.716Z,35.13
2018-06-23T17:47:17.695Z,35.56
2018-06-23T17:49:46.942Z,35.80
2018-06-23T17:52:15.890Z,35.43
2018-06-23T17:54:44.906Z,35.64
2018-06-23T17:57:13.980Z,35.94
2018-06-23T17:59:42.903Z,36.13
2018-06-23T18:02:11.899Z,35.77
2018-06-23T18:04:40.935Z,35.81
2018-06-23T18:07:10.090Z,35.17
2018-06-23T18:09:39.094Z,35.53
2018-06-23T18:12:08.049Z,36.47
2018-06-23T18:14:37.098Z,36.36
2018-06-23T18:17:06.107Z,37.17
2018-06-23T18:19:35.345Z,37.21
2018-06-23T18:22:04.281Z,37.52
2018-06-23T18:24:33.271Z,37.99
2018-06-23T18:27:02.235Z,37.69
2018-06-23T18:29:31.222Z,38.43
2018-06-23T18:32:00.930Z,38.42
2018-06-23T18:34:29.965Z,38.61
2018-06-23T18:36:58.902Z,38.85
2018-06-23T18:39:27.895Z,39.71
2018-06-23T18:41:56.866Z,39.21
2018-06-23T18:44:25.894Z,38.80
2018-06-23T18:46:55.106Z,38.84
2018-06-23T18:49:24.110Z,38.93
2018-06-23T18:51:53.049Z,39.15
2018-06-23T18:54:22.071Z,39.39
2018-06-23T18:56:51.014Z,39.66
2018-06-23T18:59:19.968Z,39.29
2018-06-23T19:01:48.933Z,39.81
2018-06-23T19:04:17.944Z,39.82
2018-06-23T19:06:46.927Z,39.88
2018-06-23T19:09:16.695Z,40.12
2018-06-23T19:11:45.683Z,40.13
2018-06-23T19:14:14.642Z,39.92
2018-06-23T19:16:43.694Z,40.45
2018-06-23T19:19:12.641Z,40.33
2018-06-23T19:21:41.619Z,40.81
2018-06-23T19:24:10.613Z,41.09
2018-06-23T19:26:39.594Z,41.31
2018-06-23T19:29:08.604Z,41.18
2018-06-23T19:31:37.602Z,41.27
2018-06-23T19:34:06.558Z,41.31
2018-06-23T19:36:35.564Z,41.26
2018-06-23T19:39:06.521Z,41.68
2018-06-23T19:41:35.538Z,41.85
2018-06-23T19:44:04.604Z,42.10
2018-06-23T19:46:33.578Z,42.36
2018-06-23T19:49:02.556Z,42.23
2018-06-23T19:51:31.561Z,42.79
2018-06-23T19:54:00.634Z,42.96
2018-06-23T19:56:29.555Z,43.35
2018-06-23T19:58:58.580Z,43.33
2018-06-23T20:01:27.600Z,43.27
2018-06-23T20:03:56.599Z,43.48
2018-06-23T20:06:25.610Z,43.28
2018-06-23T20:08:54.573Z,43.89
2018-06-23T20:11:23.506Z,44.70
2018-06-23T20:13:52.498Z,44.86
2018-06-23T20:16:21.483Z,44.73
2018-06-23T20:18:50.465Z,44.68
2018-06-23T20:21:19.409Z,45.13
2018-06-23T20:23:48.440Z,44.96
2018-06-23T20:26:17.393Z,44.88
2018-06-23T20:28:46.408Z,44.82
2018-06-23T20:31:15.351Z,45.33
2018-06-23T20:33:44.343Z,45.63
2018-06-23T20:36:13.411Z,46.17
2018-06-23T20:38:42.418Z,46.57
2018-06-23T20:41:11.391Z,47.45
2018-06-23T20:43:40.457Z,48.66
2018-06-23T20:46:09.417Z,47.93
2018-06-23T20:48:38.442Z,47.43
2018-06-23T20:51:07.459Z,48.31
2018-06-23T20:53:36.495Z,49.46
2018-06-23T20:56:05.486Z,49.75
2018-06-23T20:58:34.526Z,48.44
2018-06-23T21:01:03.532Z,48.24
2018-06-23T21:03:32.515Z,48.15
2018-06-23T21:06:01.510Z,48.04
2018-06-23T21:08:30.514Z,47.87
2018-06-23T21:10:59.449Z,47.77
2018-06-23T21:13:28.463Z,47.71
2018-06-23T21:15:57.427Z,47.95
2018-06-23T21:18:26.451Z,47.71
2018-06-23T21:20:55.402Z,48.25
2018-06-23T21:23:24.410Z,48.29
2018-06-23T21:25:53.532Z,49.33
2018-06-23T21:28:22.546Z,49.33
2018-06-23T21:30:51.586Z,50.47
2018-06-23T21:33:20.640Z,51.97
2018-06-23T21:35:49.633Z,51.96
2018-06-23T21:38:18.586Z,51.24
2018-06-23T21:40:47.606Z,50.67
2018-06-23T21:43:16.561Z,51.72
2018-06-23T21:45:45.563Z,51.59
2018-06-23T21:48:14.532Z,53.12
2018-06-23T21:50:43.534Z,53.06
2018-06-23T21:53:12.538Z,53.55
2018-06-23T21:55:41.573Z,52.56
2018-06-23T21:58:10.557Z,51.70
2018-06-23T22:00:42.023Z,51.49
2018-06-23T22:03:12.218Z,51.93
2018-06-23T22:05:41.246Z,51.24
2018-06-23T22:08:10.602Z,50.98
2018-06-23T22:10:39.656Z,51.10
2018-06-23T22:13:08.639Z,51.00
2018-06-23T22:15:37.617Z,50.97
2018-06-23T22:18:06.576Z,50.90
2018-06-23T22:20:35.560Z,50.28
2018-06-23T22:23:04.498Z,50.50
2018-06-23T22:25:33.630Z,50.50
2018-06-23T22:28:02.720Z,50.57
2018-06-23T22:30:31.715Z,50.21
2018-06-23T22:33:00.634Z,49.95
2018-06-23T22:35:29.632Z,49.83
2018-06-23T22:37:58.634Z,50.40
2018-06-23T22:40:27.685Z,50.20
2018-06-23T22:42:56.656Z,50.11
2018-06-23T22:45:25.629Z,50.19
2018-06-23T22:47:54.632Z,50.15
2018-06-23T22:50:23.637Z,49.75
2018-06-23T22:52:52.637Z,50.41
2018-06-23T22:55:21.593Z,51.79
2018-06-23T22:57:50.588Z,52.37
2018-06-23T23:00:19.568Z,53.01
2018-06-23T23:02:48.575Z,53.50
2018-06-23T23:05:17.550Z,53.30
2018-06-23T23:07:46.551Z,52.37
2018-06-23T23:10:15.540Z,52.08
2018-06-23T23:12:44.600Z,51.97
2018-06-23T23:15:13.542Z,52.01
2018-06-23T23:17:42.606Z,51.69
2018-06-23T23:20:11.591Z,51.56
2018-06-23T23:22:40.607Z,51.58
2018-06-23T23:25:09.562Z,51.79
2018-06-23T23:27:38.551Z,51.47
2018-06-23T23:30:08.307Z,51.16
2018-06-23T23:32:37.298Z,51.19
2018-06-23T23:35:06.291Z,51.42
2018-06-23T23:37:35.298Z,52.19
2018-06-23T23:40:04.326Z,51.67
2018-06-23T23:42:33.373Z,52.15
2018-06-23T23:45:02.322Z,52.02
2018-06-23T23:47:31.375Z,52.43
2018-06-23T23:50:00.455Z,52.09
2018-06-23T23:52:29.481Z,52.06
2018-06-23T23:54:58.475Z,52.15
2018-06-23T23:57:27.529Z,51.68
2018-06-23T23:59:56.467Z,51.38
